createdAt,value
2023-04-25T05:03:18.516Z,25.00
2023-04-25T05:04:18.569Z,25.00
2023-04-25T05:05:17.608Z,25.00
2023-04-25T05:06:18.573Z,25.00
2023-04-25T05:07:18.667Z,25.00
2023-04-25T05:08:17.474Z,25.00
2023-04-25T05:09:17.520Z,0.00
2023-04-25T05:10:17.553Z,0.00
2023-04-25T05:11:17.482Z,0.00
2023-04-25T05:12:18.567Z,0.00
2023-04-25T05:13:17.579Z,0.00
2023-04-25T05:14:17.524Z,0.00
2023-04-25T05:15:18.485Z,0.00
2023-04-25T05:16:18.511Z,0.00
2023-04-25T05:17:17.476Z,0.00
2023-04-25T05:18:18.452Z,0.00
2023-04-25T05:19:18.442Z,0.00
2023-04-25T05:20:18.474Z,0.00
2023-04-25T05:21:18.465Z,0.00
2023-04-25T05:22:18.462Z,0.00
2023-04-25T05:23:18.406Z,0.00
2023-04-25T05:24:17.978Z,0.00
2023-04-25T05:25:17.704Z,0.00
2023-04-25T05:26:17.538Z,0.00
2023-04-25T05:27:17.705Z,0.00
2023-04-25T05:28:17.510Z,0.00
2023-04-25T05:29:18.947Z,0.00
2023-04-25T05:31:36.791Z,25.00
2023-04-25T05:32:36.849Z,25.00
2023-04-25T05:33:36.542Z,25.00
2023-04-25T05:34:36.676Z,25.00
2023-04-25T05:35:38.027Z,25.00
2023-04-25T05:36:38.002Z,24.17
2023-04-25T05:37:37.838Z,31.25
2023-04-25T05:38:37.421Z,28.14
2023-04-25T05:40:56.543Z,25.00
2023-04-25T05:43:15.648Z,25.00
2023-04-25T05:44:16.628Z,25.00
2023-04-25T05:45:16.800Z,25.00
2023-04-25T05:47:35.018Z,25.00
2023-04-25T05:48:34.836Z,25.00
2023-04-25T05:49:35.990Z,25.00
2023-04-25T05:50:35.972Z,25.00
2023-04-25T05:51:35.018Z,25.00
2023-04-25T05:52:35.832Z,25.00
2023-04-25T05:53:35.758Z,23.30
2023-04-25T05:54:35.996Z,28.97
2023-04-25T05:55:34.749Z,28.75
2023-04-25T05:56:35.728Z,20.62
2023-04-25T05:57:35.724Z,25.45
2023-04-25T05:58:34.818Z,29.05
2023-04-25T05:59:35.714Z,37.66
2023-04-25T06:00:34.973Z,37.96
2023-04-25T06:01:35.040Z,46.40
2023-04-25T06:02:34.859Z,49.96
2023-04-25T06:03:35.850Z,60.59
2023-04-25T06:04:36.034Z,63.66
2023-04-25T06:05:35.941Z,62.27
2023-04-25T06:06:35.945Z,57.23
2023-04-25T06:07:34.960Z,25.42
2023-04-25T06:08:35.489Z,25.00
2023-04-25T06:09:36.119Z,25.00
2023-04-25T06:10:35.116Z,27.14
2023-04-25T06:11:36.205Z,30.75
2023-04-25T06:12:36.137Z,25.72
2023-04-25T06:13:36.246Z,22.53
2023-04-25T06:15:54.349Z,25.00
2023-04-25T06:16:55.313Z,25.00
2023-04-25T06:17:55.287Z,25.00
2023-04-25T06:18:55.280Z,25.00
2023-04-25T06:19:55.234Z,25.00
2023-04-25T06:20:55.228Z,16.67
2023-04-25T06:21:55.290Z,27.93
2023-04-25T06:22:55.268Z,0.00
2023-04-25T06:23:55.220Z,14.70
2023-04-25T06:24:54.198Z,26.84
2023-04-25T06:25:55.172Z,25.00
2023-04-25T06:26:54.179Z,18.90
2023-04-25T06:27:54.215Z,29.31
2023-04-25T06:28:55.177Z,9.81
2023-04-25T06:29:54.138Z,0.00
2023-04-25T06:30:55.162Z,32.17
2023-04-25T06:31:54.169Z,26.89
2023-04-25T06:32:54.301Z,12.03
2023-04-25T06:33:55.137Z,9.35
2023-04-25T06:34:55.110Z,17.46
2023-04-25T06:35:54.105Z,20.12
2023-04-25T06:36:54.193Z,56.46
2023-04-25T06:37:55.237Z,131.69
2023-04-25T06:38:54.247Z,171.18
2023-04-25T06:39:54.343Z,163.70
2023-04-25T06:40:54.339Z,121.63
2023-04-25T06:41:55.369Z,121.67
2023-04-25T06:42:55.454Z,81.83
2023-04-25T06:43:55.482Z,62.97
2023-04-25T06:44:54.549Z,0.00
2023-04-25T06:45:54.481Z,0.00
2023-04-25T06:46:55.567Z,18.12
2023-04-25T06:47:55.604Z,39.02
2023-04-25T06:48:55.578Z,19.07
2023-04-25T06:49:55.622Z,40.92
2023-04-25T06:50:55.661Z,71.34
2023-04-25T06:51:55.960Z,99.29
2023-04-25T06:52:55.695Z,127.08
2023-04-25T06:53:55.725Z,137.74
2023-04-25T06:54:55.903Z,153.61
2023-04-25T06:55:55.636Z,155.41
2023-04-25T06:57:00.618Z,185.12
2023-04-25T06:59:32.431Z,25.00
2023-04-25T07:00:29.063Z,25.00
2023-04-25T07:01:29.825Z,25.00
2023-04-25T07:03:47.884Z,25.00
2023-04-25T07:04:49.831Z,25.00
2023-04-25T07:07:10.078Z,25.00
2023-04-25T07:09:39.804Z,25.00
2023-04-25T07:10:27.841Z,25.00
2023-04-25T07:12:45.983Z,25.00
2023-04-25T07:15:05.065Z,25.00
2023-04-25T07:16:17.030Z,25.00
2023-04-25T07:17:06.095Z,25.00
2023-04-25T07:18:06.462Z,25.00
2023-04-25T07:20:25.804Z,25.00
2023-04-25T07:22:44.640Z,25.00
2023-04-25T07:23:45.225Z,25.00
2023-04-25T07:26:15.311Z,25.00
2023-04-25T07:29:01.814Z,25.00
2023-04-25T07:31:21.621Z,25.00
2023-04-25T07:32:22.301Z,25.00
2023-04-25T07:33:21.489Z,25.00
2023-04-25T07:35:44.498Z,25.00
2023-04-25T07:36:41.110Z,25.00
2023-04-25T07:39:03.082Z,25.00
2023-04-25T07:41:19.095Z,25.00
2023-04-25T07:42:20.069Z,25.00
2023-04-25T07:43:19.970Z,25.00
2023-04-25T07:44:20.082Z,25.00
2023-04-25T07:45:18.880Z,25.00
2023-04-25T07:46:19.775Z,24.68
2023-04-25T07:47:19.970Z,22.85
2023-04-25T07:48:18.758Z,60.80
2023-04-25T07:49:19.732Z,86.66
2023-04-25T07:50:18.727Z,98.93
2023-04-25T07:51:18.687Z,120.41
2023-04-25T07:52:18.985Z,194.19
2023-04-25T07:53:19.806Z,226.25
2023-04-25T07:54:19.689Z,250.00
2023-04-25T07:55:19.827Z,211.96
2023-04-25T07:56:19.068Z,238.27
2023-04-25T07:58:37.960Z,25.00
2023-04-25T07:59:38.905Z,25.00
2023-04-25T08:00:38.122Z,25.00
2023-04-25T08:01:37.871Z,25.00
2023-04-25T08:02:38.041Z,25.00
2023-04-25T08:03:38.195Z,5.81
2023-04-25T08:04:38.978Z,0.00
2023-04-25T08:05:38.894Z,130.34
2023-04-25T08:06:39.311Z,97.42
2023-04-25T08:07:39.613Z,0.00
2023-04-25T08:08:38.796Z,0.00
2023-04-25T08:09:38.821Z,0.00
2023-04-25T08:10:38.783Z,56.65
2023-04-25T08:11:37.781Z,86.71
2023-04-25T08:12:38.759Z,19.73
2023-04-25T08:13:37.993Z,0.00
2023-04-25T08:14:37.762Z,0.00
2023-04-25T08:15:38.848Z,0.00
2023-04-25T08:16:38.751Z,0.00
2023-04-25T08:17:38.768Z,0.00
2023-04-25T08:18:37.792Z,0.00
2023-04-25T08:19:37.700Z,0.00
2023-04-25T08:20:37.684Z,0.00
2023-04-25T08:21:38.705Z,206.77
2023-04-25T08:22:37.743Z,370.35
2023-04-25T08:23:37.778Z,340.32
2023-04-25T08:24:39.457Z,274.51
2023-04-25T08:25:37.790Z,250.70
2023-04-25T08:26:38.850Z,232.14
2023-04-25T08:27:38.878Z,210.93
2023-04-25T08:28:38.900Z,153.47
2023-04-25T08:29:38.940Z,150.36
2023-04-25T08:30:38.958Z,137.29
2023-04-25T08:31:38.027Z,148.09
2023-04-25T08:32:38.020Z,211.55
2023-04-25T08:33:39.039Z,248.15
2023-04-25T08:34:39.357Z,228.54
2023-04-25T08:35:38.087Z,264.11
2023-04-25T08:37:57.999Z,25.00
2023-04-25T08:38:58.830Z,25.00
2023-04-25T08:39:57.729Z,25.00
2023-04-25T08:40:58.658Z,25.00
2023-04-25T08:41:57.651Z,25.00
2023-04-25T08:42:58.355Z,44.50
2023-04-25T08:43:58.637Z,25.00
2023-04-25T08:44:58.635Z,65.51
2023-04-25T08:45:58.658Z,47.00
2023-04-25T08:46:57.644Z,113.30
2023-04-25T08:47:57.710Z,72.35
2023-04-25T08:48:58.265Z,123.93
2023-04-25T08:49:57.627Z,142.45
2023-04-25T08:50:58.624Z,104.28
2023-04-25T08:51:57.592Z,90.20
2023-04-25T08:52:58.606Z,27.37
2023-04-25T08:53:58.844Z,13.87
2023-04-25T08:54:58.555Z,14.81
2023-04-25T08:55:58.571Z,29.73
2023-04-25T08:56:58.561Z,18.79
2023-04-25T08:57:57.833Z,0.00
2023-04-25T08:58:57.552Z,33.85
2023-04-25T08:59:58.553Z,97.01
2023-04-25T09:00:57.534Z,225.23
2023-04-25T09:01:57.585Z,99.63
2023-04-25T09:02:58.627Z,163.77
2023-04-25T09:03:58.761Z,185.62
2023-04-25T09:04:58.535Z,201.90
2023-04-25T09:05:58.717Z,212.76
2023-04-25T09:06:58.696Z,129.83
2023-04-25T09:07:57.529Z,77.26
2023-04-25T09:08:57.646Z,63.09
2023-04-25T09:09:58.578Z,21.99
2023-04-25T09:10:58.619Z,25.00
2023-04-25T09:11:57.695Z,38.19
2023-04-25T09:12:58.669Z,35.84
2023-04-25T09:13:58.720Z,78.70
2023-04-25T09:14:58.772Z,0.00
2023-04-25T09:15:58.876Z,0.00
2023-04-25T09:16:58.879Z,0.00
2023-04-25T09:17:57.875Z,0.00
2023-04-25T09:18:58.901Z,0.00
2023-04-25T09:19:57.966Z,0.00
2023-04-25T09:21:01.821Z,0.00
2023-04-25T09:21:58.963Z,1.05
2023-04-25T09:22:58.944Z,24.53
2023-04-25T09:23:57.944Z,56.75
2023-04-25T09:24:57.937Z,45.58
2023-04-25T09:25:57.948Z,18.36
2023-04-25T09:26:58.938Z,25.00
2023-04-25T09:27:58.947Z,70.27
2023-04-25T09:28:57.944Z,49.57
2023-04-25T09:29:58.917Z,23.78
2023-04-25T09:30:58.901Z,0.00
2023-04-25T09:31:57.974Z,0.00
2023-04-25T09:32:59.433Z,0.00
2023-04-25T09:33:58.124Z,0.00
2023-04-25T09:34:58.905Z,0.00
2023-04-25T09:35:58.869Z,56.92
2023-04-25T09:36:57.878Z,0.00
2023-04-25T09:37:57.908Z,18.99
2023-04-25T09:38:58.861Z,37.48
2023-04-25T09:39:57.837Z,25.23
2023-04-25T09:40:58.843Z,53.58
2023-04-25T09:41:59.149Z,138.14
2023-04-25T09:42:58.863Z,29.20
2023-04-25T09:43:58.049Z,38.91
2023-04-25T09:44:57.807Z,127.96
2023-04-25T09:45:59.260Z,110.64
2023-04-25T09:46:58.801Z,82.88
2023-04-25T09:47:59.007Z,178.36
2023-04-25T09:48:58.859Z,191.51
2023-04-25T09:49:59.050Z,56.34
2023-04-25T09:50:57.893Z,62.34
2023-04-25T09:51:58.763Z,99.87
2023-04-25T09:53:01.099Z,125.84
2023-04-25T09:53:57.730Z,80.63
2023-04-25T09:54:58.753Z,79.85
2023-04-25T09:55:58.766Z,0.00
2023-04-25T09:56:58.958Z,12.73
2023-04-25T09:57:58.754Z,0.00
2023-04-25T09:58:58.781Z,30.92
2023-04-25T09:59:58.912Z,13.28
2023-04-25T10:00:58.958Z,25.00
2023-04-25T10:01:58.710Z,100.27
2023-04-25T10:02:59.160Z,22.89
2023-04-25T10:05:17.269Z,25.00
2023-04-25T10:06:17.548Z,25.00
2023-04-25T10:07:17.089Z,25.00
2023-04-25T10:08:18.206Z,25.00
2023-04-25T10:09:17.200Z,25.00
2023-04-25T10:10:17.034Z,72.11
2023-04-25T10:11:18.138Z,187.98
2023-04-25T10:12:18.211Z,250.89
2023-04-25T10:13:17.096Z,278.03
2023-04-25T10:14:18.176Z,248.08
2023-04-25T10:15:18.120Z,234.80
2023-04-25T10:16:18.568Z,238.58
2023-04-25T10:17:17.005Z,210.75
2023-04-25T10:18:16.979Z,235.79
2023-04-25T10:19:18.007Z,271.42
2023-04-25T10:20:17.982Z,257.63
2023-04-25T10:21:17.986Z,261.40
2023-04-25T10:22:18.012Z,263.92
2023-04-25T10:23:17.461Z,225.01
2023-04-25T10:24:17.958Z,247.90
2023-04-25T10:25:18.009Z,247.90
2023-04-25T10:26:17.995Z,242.42
2023-04-25T10:27:18.001Z,250.00
2023-04-25T10:28:17.953Z,253.72
2023-04-25T10:29:17.920Z,231.43
2023-04-25T10:30:17.961Z,232.63
2023-04-25T10:31:17.097Z,200.74
2023-04-25T10:32:17.978Z,134.70
2023-04-25T10:33:17.867Z,128.23
2023-04-25T10:34:17.962Z,257.82
2023-04-25T10:35:17.977Z,185.86
2023-04-25T10:36:17.898Z,128.35
2023-04-25T10:38:36.421Z,25.00
2023-04-25T10:39:37.286Z,25.00
2023-04-25T10:40:37.508Z,25.00
2023-04-25T10:41:36.289Z,25.00
2023-04-25T10:42:36.239Z,25.00
2023-04-25T10:43:37.655Z,36.77
2023-04-25T10:44:37.221Z,24.35
2023-04-25T10:45:37.222Z,0.00
2023-04-25T10:46:37.355Z,0.00
2023-04-25T10:47:37.255Z,178.32
2023-04-25T10:48:37.596Z,196.55
2023-04-25T10:49:37.202Z,230.02
2023-04-25T10:50:37.305Z,293.26
2023-04-25T10:51:47.259Z,153.64
2023-04-25T10:52:37.417Z,89.77
2023-04-25T10:53:37.164Z,111.46
2023-04-25T10:54:37.305Z,120.05
2023-04-25T10:55:36.159Z,176.38
2023-04-25T10:56:44.694Z,290.69
2023-04-25T10:58:55.671Z,25.00
2023-04-25T10:59:56.339Z,25.00
2023-04-25T11:02:14.800Z,25.00
2023-04-25T11:03:15.619Z,25.00
2023-04-25T11:04:15.807Z,25.00
2023-04-25T11:05:15.622Z,25.00
2023-04-25T11:06:15.758Z,25.00
2023-04-25T11:07:14.569Z,0.00
2023-04-25T11:08:15.751Z,0.00
2023-04-25T11:09:14.562Z,0.00
2023-04-25T11:10:14.523Z,0.00
2023-04-25T11:11:15.473Z,0.00
2023-04-25T11:12:15.435Z,0.00
2023-04-25T11:13:15.414Z,0.00
2023-04-25T11:14:15.462Z,0.00
2023-04-25T11:15:15.412Z,0.00
2023-04-25T11:16:23.592Z,0.00
2023-04-25T11:17:15.525Z,0.00
2023-04-25T11:18:14.426Z,0.00
2023-04-25T11:19:15.423Z,11.19
2023-04-25T11:20:14.371Z,0.00
2023-04-25T11:21:15.360Z,0.00
2023-04-25T11:22:15.360Z,0.00
2023-04-25T11:23:15.370Z,0.00
2023-04-25T11:24:14.345Z,0.00
2023-04-25T11:25:15.347Z,0.00
2023-04-25T11:26:15.541Z,0.00
2023-04-25T11:27:15.316Z,0.00
2023-04-25T11:28:15.372Z,0.00
2023-04-25T11:29:15.297Z,0.00
2023-04-25T11:30:14.319Z,0.00
2023-04-25T11:31:14.300Z,0.00
2023-04-25T11:32:14.382Z,0.00
2023-04-25T11:33:15.392Z,0.00
2023-04-25T11:34:14.376Z,0.00
2023-04-25T11:35:15.393Z,0.00
2023-04-25T11:36:14.505Z,0.00
2023-04-25T11:37:14.444Z,25.29
2023-04-25T11:38:14.874Z,142.81
2023-04-25T11:39:16.453Z,208.70
2023-04-25T11:40:15.507Z,14.88
2023-04-25T11:41:15.538Z,0.00
2023-04-25T11:42:15.594Z,0.00
2023-04-25T11:43:15.587Z,0.00
2023-04-25T11:44:14.621Z,0.00
2023-04-25T11:45:14.739Z,0.00
2023-04-25T11:46:15.740Z,0.00
2023-04-25T11:47:14.702Z,43.88
2023-04-25T11:48:15.007Z,26.57
2023-04-25T11:49:15.821Z,0.00
2023-04-25T11:50:14.821Z,0.00
2023-04-25T11:51:14.847Z,0.00
2023-04-25T11:52:14.921Z,0.00
2023-04-25T11:53:15.863Z,104.46
2023-04-25T11:54:14.881Z,41.73
2023-04-25T11:55:15.939Z,0.00
2023-04-25T11:56:15.913Z,0.00
2023-04-25T12:19:42.822Z,25.00
2023-04-25T12:20:43.788Z,25.00
2023-04-25T12:21:54.396Z,25.00
2023-04-25T12:22:43.504Z,25.00
2023-04-25T12:23:43.441Z,25.00
2023-04-25T12:24:43.451Z,25.00
2023-04-25T12:25:42.500Z,25.00
2023-04-25T12:26:42.439Z,25.00
2023-04-25T12:27:43.391Z,25.00
2023-04-25T12:28:43.443Z,0.00
2023-04-25T12:29:49.911Z,8.17
2023-04-25T12:30:43.450Z,0.00
2023-04-25T12:31:42.516Z,0.00
2023-04-25T12:32:42.408Z,0.00
2023-04-25T12:33:42.454Z,0.00
2023-04-25T12:34:43.358Z,0.00
2023-04-25T12:35:44.358Z,0.00
2023-04-25T12:36:42.358Z,0.00
2023-04-25T12:37:42.337Z,0.00
2023-04-25T12:38:43.395Z,0.00
2023-04-25T12:39:42.347Z,0.00
2023-04-25T12:40:42.324Z,0.00
2023-04-25T12:41:43.401Z,0.00
2023-04-25T12:42:42.333Z,0.00
2023-04-25T12:43:43.340Z,31.24
2023-04-25T12:44:42.629Z,183.91
2023-04-25T12:45:42.276Z,148.32
2023-04-25T12:46:43.324Z,143.85
2023-04-25T12:47:42.335Z,111.68
2023-04-25T12:48:42.273Z,40.24
2023-04-25T12:49:42.307Z,54.27
2023-04-25T12:50:43.410Z,204.96
2023-04-25T12:51:43.451Z,183.07
2023-04-25T12:52:42.599Z,212.94
2023-04-25T12:53:43.446Z,289.69
2023-04-25T12:54:42.545Z,312.64
2023-04-25T12:55:43.485Z,263.44
2023-04-25T12:56:43.599Z,135.26
2023-04-25T12:57:42.523Z,112.77
2023-04-25T12:58:43.571Z,69.98
2023-04-25T12:59:42.630Z,9.27
2023-04-25T13:00:43.696Z,46.82
2023-04-25T13:01:43.765Z,64.25
2023-04-25T13:02:43.803Z,67.43
2023-04-25T13:03:42.962Z,89.82
2023-04-25T13:04:43.769Z,52.50
2023-04-25T13:05:43.826Z,30.90
2023-04-25T13:06:43.802Z,31.92
2023-04-25T13:07:42.959Z,7.54
2023-04-25T13:08:43.924Z,23.59
2023-04-25T13:09:43.885Z,15.23
2023-04-25T13:10:43.935Z,18.65
2023-04-25T13:11:43.949Z,34.70
2023-04-25T13:12:43.022Z,35.54
2023-04-25T13:13:43.069Z,63.28
2023-04-25T13:14:43.249Z,19.38
2023-04-25T13:15:43.140Z,38.86
2023-04-25T13:16:44.272Z,65.20
2023-04-25T13:17:44.277Z,130.12
2023-04-25T13:18:44.301Z,140.50
2023-04-25T13:19:43.323Z,94.91
2023-04-25T13:20:44.397Z,98.24
2023-04-25T13:21:43.455Z,173.72
2023-04-25T13:22:44.444Z,160.82
2023-04-25T13:23:44.552Z,72.74
2023-04-25T13:24:44.571Z,33.04
2023-04-25T13:25:44.605Z,46.73
2023-04-25T13:26:43.761Z,119.61
2023-04-25T13:27:43.719Z,123.32
2023-04-25T13:28:44.982Z,69.06
2023-04-25T13:29:44.830Z,89.68
2023-04-25T13:30:44.873Z,77.00
2023-04-25T13:31:44.879Z,138.05
2023-04-25T13:32:43.984Z,129.62
2023-04-25T13:33:44.953Z,175.48
2023-04-25T13:34:44.962Z,127.12
2023-04-25T13:35:45.017Z,141.98
2023-04-25T13:36:44.024Z,133.92
2023-04-25T13:37:45.006Z,147.98
2023-04-25T13:38:44.118Z,92.42
2023-04-25T13:39:45.111Z,52.03
2023-04-25T13:40:45.145Z,31.58
2023-04-25T13:41:44.173Z,3.73
2023-04-25T13:42:45.190Z,0.00
2023-04-25T13:43:45.230Z,0.00
2023-04-25T13:44:45.495Z,0.00
2023-04-25T13:45:44.350Z,23.27
2023-04-25T13:46:47.456Z,53.36
2023-04-25T13:47:45.352Z,76.09
2023-04-25T13:48:44.330Z,96.92
2023-04-25T13:49:45.375Z,63.70
2023-04-25T13:50:44.328Z,121.65
2023-04-25T13:51:44.308Z,155.18
2023-04-25T13:52:45.329Z,182.49
2023-04-25T13:53:45.347Z,210.82
2023-04-25T13:54:45.288Z,189.74
2023-04-25T13:55:45.311Z,171.40
2023-04-25T13:56:45.370Z,171.82
2023-04-25T13:57:45.241Z,176.32
2023-04-25T13:58:45.302Z,208.34
2023-04-25T13:59:44.289Z,242.38
2023-04-25T14:00:45.256Z,280.39
2023-04-25T14:01:45.278Z,298.77
2023-04-25T14:02:45.314Z,301.81
2023-04-25T14:03:45.293Z,271.19
2023-04-25T14:04:44.319Z,254.21
2023-04-25T14:05:45.247Z,256.95
2023-04-25T14:06:44.210Z,258.66
2023-04-25T14:07:45.251Z,269.21
2023-04-25T14:08:45.504Z,212.43
2023-04-25T14:09:44.396Z,198.58
2023-04-25T14:10:45.497Z,238.21
2023-04-25T14:11:45.215Z,225.23
2023-04-25T14:12:44.201Z,231.98
2023-04-25T14:13:44.186Z,241.09
2023-04-25T14:14:44.223Z,240.06
2023-04-25T14:15:44.195Z,275.27
2023-04-25T14:16:45.152Z,269.08
2023-04-25T14:17:44.204Z,261.45
2023-04-25T14:18:44.119Z,240.31
2023-04-25T14:19:44.136Z,235.93
2023-04-25T14:20:45.146Z,252.19
2023-04-25T14:21:45.084Z,260.84
2023-04-25T14:22:44.107Z,239.47
2023-04-25T14:23:44.144Z,232.61
2023-04-25T14:24:45.101Z,234.31
2023-04-25T14:25:44.098Z,232.16
2023-04-25T14:26:45.093Z,241.65
2023-04-25T14:27:45.053Z,242.29
2023-04-25T14:28:45.035Z,226.15
2023-04-25T14:29:44.098Z,236.51
2023-04-25T14:30:45.053Z,230.94
2023-04-25T14:33:04.525Z,25.00
2023-04-25T14:34:04.306Z,25.00
2023-04-25T14:35:05.473Z,25.00
2023-04-25T14:36:05.264Z,25.00
2023-04-25T14:37:04.198Z,25.00
2023-04-25T14:38:05.235Z,25.00
2023-04-25T14:39:04.166Z,29.85
2023-04-25T14:40:05.180Z,90.05
2023-04-25T14:41:04.216Z,51.60
2023-04-25T14:42:04.210Z,67.96
2023-04-25T14:43:04.207Z,62.01
2023-04-25T14:44:04.138Z,29.81
2023-04-25T14:45:05.198Z,36.65
2023-04-25T14:46:04.184Z,93.46
2023-04-25T14:47:04.215Z,137.17
2023-04-25T14:48:05.160Z,183.82
2023-04-25T14:49:04.192Z,331.39
2023-04-25T14:50:05.239Z,224.91
2023-04-25T14:51:04.128Z,176.13
2023-04-25T14:52:04.125Z,119.68
2023-04-25T14:53:05.144Z,169.07
2023-04-25T14:54:04.046Z,215.78
2023-04-25T14:55:05.130Z,218.91
2023-04-25T14:56:04.144Z,188.46
2023-04-25T14:57:05.127Z,175.18
2023-04-25T14:58:04.145Z,159.28
2023-04-25T14:59:04.230Z,162.97
2023-04-25T15:00:05.205Z,136.50
2023-04-25T15:01:04.273Z,161.64
2023-04-25T15:02:05.303Z,123.99
2023-04-25T15:03:05.525Z,123.53
2023-04-25T15:04:05.475Z,120.55
2023-04-25T15:05:04.516Z,25.00
2023-04-25T15:06:04.463Z,32.99
2023-04-25T15:07:05.505Z,1.31
2023-04-25T15:08:05.481Z,36.64
2023-04-25T15:09:05.536Z,41.39
2023-04-25T15:10:05.548Z,76.96
2023-04-25T15:11:04.631Z,84.21
2023-04-25T15:12:04.584Z,74.99
2023-04-25T15:13:05.620Z,79.12
2023-04-25T15:14:04.693Z,120.04
2023-04-25T15:15:05.851Z,117.90
2023-04-25T15:16:05.813Z,91.64
2023-04-25T15:17:05.045Z,132.97
